Time;durP1;ratioP1;P1;durP2;ratioP2;P2;SDS_P1;SDS_P2;PMS_P1;PMS_P2;Temp;Humidity;BMP_temperature;BMP_pressure;BME280_temperature;BME280_humidity;BME280_pressure;Samples;Min_cycle;Max_cycle;Signal;HPM_P1;HPM_P2
2021/07/01 00:04:51;;;;;;;28.77;19.60;;;;;;;23.10;100.00;94284.88;10406076;28;20116;-82
2021/07/01 00:09:52;;;;;;;29.73;19.97;;;;;;;22.89;100.00;94293.50;10404489;28;20282;-81
2021/07/01 00:14:52;;;;;;;29.40;18.87;;;;;;;22.77;100.00;94299.16;10406010;28;20084;-79
2021/07/01 00:19:52;;;;;;;26.43;19.53;;;;;;;22.74;100.00;94306.13;10421201;28;20962;-79
2021/07/01 00:30:50;;;;;;;33.70;19.67;;;;;;;22.61;100.00;94304.72;10447917;28;20029;-81
2021/07/01 00:35:50;;;;;;;30.15;18.63;;;;;;;22.57;100.00;94301.88;10447557;28;20061;-81
2021/07/01 00:40:51;;;;;;;29.20;20.42;;;;;;;22.51;100.00;94308.81;10462935;28;20036;-81
2021/07/01 00:45:52;;;;;;;26.50;20.60;;;;;;;22.44;100.00;94298.50;10448364;28;20033;-81
2021/07/01 00:50:53;;;;;;;30.05;19.00;;;;;;;22.34;100.00;94290.84;10448422;28;20029;-82
2021/07/01 00:55:54;;;;;;;27.13;19.00;;;;;;;22.25;100.00;94285.56;10449522;28;20495;-82
2021/07/01 01:01:06;;;;;;;26.73;19.92;;;;;;;22.17;100.00;94309.25;10449169;28;20027;-81
2021/07/01 01:06:08;;;;;;;32.47;18.42;;;;;;;22.07;100.00;94304.34;10453984;28;20025;-82
2021/07/01 01:11:09;;;;;;;30.85;19.20;;;;;;;22.12;100.00;94317.75;10454114;28;20392;-81
2021/07/01 01:16:10;;;;;;;29.15;19.20;;;;;;;22.00;100.00;94329.59;10454440;28;20139;-81
2021/07/01 01:21:12;;;;;;;30.80;18.13;;;;;;;22.06;100.00;94326.59;10453714;28;20049;-81
2021/07/01 01:26:13;;;;;;;30.45;19.63;;;;;;;22.01;100.00;94324.94;10451109;28;20104;-81
2021/07/01 01:31:13;;;;;;;32.00;18.55;;;;;;;22.02;100.00;94332.78;10449946;28;20025;-80
2021/07/01 01:36:14;;;;;;;28.65;18.42;;;;;;;21.96;100.00;94334.22;10449097;28;20053;-80
2021/07/01 01:41:14;;;;;;;25.73;18.50;;;;;;;21.82;100.00;94331.13;10449574;28;20041;-80
2021/07/01 01:46:15;;;;;;;28.15;17.30;;;;;;;21.91;100.00;94330.94;10450422;28;20044;-80
2021/07/01 01:51:16;;;;;;;22.33;16.77;;;;;;;21.75;100.00;94334.47;10449999;28;20028;-81
2021/07/01 01:56:19;;;;;;;29.02;18.75;;;;;;;21.73;100.00;94341.47;10449855;28;20089;-80
2021/07/01 02:01:19;;;;;;;27.65;17.70;;;;;;;21.74;100.00;94340.31;10448535;28;20059;-80
2021/07/01 02:06:20;;;;;;;31.35;17.75;;;;;;;21.79;100.00;94342.78;10448617;28;20558;-81
2021/07/01 02:11:20;;;;;;;25.95;18.17;;;;;;;21.74;100.00;94337.56;10464303;28;20037;-81
2021/07/01 02:16:21;;;;;;;27.05;16.48;;;;;;;21.70;100.00;94334.75;10448913;28;20562;-81
2021/07/01 02:21:21;;;;;;;25.52;17.90;;;;;;;21.71;100.00;94343.75;10449042;28;20025;-81
2021/07/01 02:26:22;;;;;;;35.05;18.83;;;;;;;21.67;100.00;94355.41;10447987;28;20059;-80
2021/07/01 02:31:23;;;;;;;31.88;17.90;;;;;;;21.73;100.00;94366.88;10448019;28;20090;-80
2021/07/01 02:36:23;;;;;;;29.88;18.38;;;;;;;21.84;100.00;94369.88;10443175;28;20049;-81
2021/07/01 02:41:24;;;;;;;31.42;18.58;;;;;;;21.80;100.00;94361.56;10446516;28;20039;-81
2021/07/01 02:46:24;;;;;;;27.13;17.73;;;;;;;21.88;100.00;94364.47;10451771;28;20472;-81
2021/07/01 02:51:25;;;;;;;28.35;17.73;;;;;;;21.80;100.00;94358.84;10446068;28;20039;-81
2021/07/01 02:56:26;;;;;;;25.35;18.60;;;;;;;21.68;100.00;94365.22;10446087;28;20064;-81
2021/07/01 03:01:26;;;;;;;27.83;17.65;;;;;;;21.66;100.00;94381.16;10446927;28;20876;-80
2021/07/01 03:06:27;;;;;;;26.45;17.52;;;;;;;21.58;100.00;94395.81;10447300;28;20033;-80
2021/07/01 03:11:28;;;;;;;31.27;19.67;;;;;;;21.61;100.00;94406.03;10447312;28;20040;-77
2021/07/01 03:16:28;;;;;;;29.83;19.50;;;;;;;21.44;100.00;94412.59;10452391;28;20365;-82
2021/07/01 03:21:33;;;;;;;26.63;18.50;;;;;;;21.55;100.00;94414.88;10453564;28;20040;-83
2021/07/01 03:26:34;;;;;;;31.35;18.60;;;;;;;21.48;100.00;94420.91;10452616;28;20033;-83
2021/07/01 03:31:34;;;;;;;28.85;19.63;;;;;;;21.43;100.00;94426.63;10453464;28;20029;-83
2021/07/01 03:36:35;;;;;;;38.08;22.35;;;;;;;21.46;100.00;94436.84;10452590;28;20124;-81
2021/07/01 03:41:35;;;;;;;31.83;20.23;;;;;;;21.41;100.00;94431.66;10450876;28;20029;-82
2021/07/01 03:46:37;;;;;;;34.60;20.92;;;;;;;21.45;100.00;94435.28;10447908;28;20032;-82
2021/07/01 03:51:38;;;;;;;33.05;19.55;;;;;;;21.63;100.00;94439.31;10451293;28;20033;-82
2021/07/01 03:56:41;;;;;;;31.70;17.25;;;;;;;21.73;100.00;94434.47;10451017;28;20044;-81
2021/07/01 04:01:42;;;;;;;34.35;18.27;;;;;;;21.84;100.00;94430.06;10447200;28;20048;-81
2021/07/01 04:06:42;;;;;;;30.90;20.00;;;;;;;22.02;100.00;94417.59;10450086;28;20522;-81
2021/07/01 04:11:44;;;;;;;30.58;18.88;;;;;;;22.19;100.00;94407.44;10440865;28;20037;-75
2021/07/01 04:16:45;;;;;;;30.48;17.35;;;;;;;22.45;100.00;94401.41;10441206;28;20834;-75
2021/07/01 04:21:46;;;;;;;27.67;18.27;;;;;;;22.73;100.00;94397.72;10440362;28;20040;-75
2021/07/01 04:26:47;;;;;;;29.20;16.80;;;;;;;23.08;100.00;94394.09;10437908;28;20041;-76
2021/07/01 04:31:48;;;;;;;30.13;16.58;;;;;;;23.40;100.00;94384.94;10422457;28;20036;-75
2021/07/01 04:36:48;;;;;;;27.88;15.20;;;;;;;23.69;100.00;94376.06;10432453;28;20056;-75
2021/07/01 04:41:49;;;;;;;26.58;14.88;;;;;;;23.89;100.00;94373.28;10444612;28;20108;-75
2021/07/01 04:46:49;;;;;;;25.05;12.98;;;;;;;23.95;100.00;94376.50;10445968;28;20033;-75
2021/07/01 04:51:50;;;;;;;21.70;13.27;;;;;;;24.38;100.00;94372.44;10444969;28;20029;-75
2021/07/01 04:56:50;;;;;;;24.83;13.00;;;;;;;24.95;100.00;94377.13;10446861;28;20377;-75
2021/07/01 05:01:52;;;;;;;22.55;12.00;;;;;;;25.26;100.00;94377.88;10447823;28;20029;-75
2021/07/01 05:06:52;;;;;;;17.50;11.55;;;;;;;25.94;100.00;94391.50;10448883;28;20039;-75
2021/07/01 05:11:53;;;;;;;24.73;12.02;;;;;;;26.46;100.00;94388.81;10448163;28;20029;-75
2021/07/01 05:16:54;;;;;;;30.83;13.80;;;;;;;26.83;100.00;94384.31;10447593;28;20025;-75
2021/07/01 05:21:59;;;;;;;18.80;11.70;;;;;;;27.29;100.00;94378.16;10447172;28;20489;-75
2021/07/01 05:26:59;;;;;;;28.38;11.30;;;;;;;27.96;100.00;94382.28;10447640;28;20033;-75
2021/07/01 05:32:00;;;;;;;22.02;10.25;;;;;;;28.60;100.00;94363.28;10462672;28;20040;-75
2021/07/01 05:37:00;;;;;;;25.38;11.07;;;;;;;28.89;100.00;94366.78;10446587;28;20582;-75
2021/07/01 05:42:01;;;;;;;24.38;9.85;;;;;;;29.72;100.00;94368.38;10446739;28;20159;-75
2021/07/01 05:47:02;;;;;;;22.02;9.40;;;;;;;30.30;100.00;94352.88;10446032;28;20735;-75
2021/07/01 05:52:05;;;;;;;18.40;9.25;;;;;;;30.95;94.02;94356.97;10444364;28;20744;-75
2021/07/01 05:57:05;;;;;;;15.65;9.20;;;;;;;31.34;92.18;94356.53;10443810;28;20028;-75
2021/07/01 06:02:05;;;;;;;20.77;9.40;;;;;;;31.89;85.06;94350.22;10445570;28;20789;-75
2021/07/01 06:07:08;;;;;;;16.85;9.10;;;;;;;31.80;85.30;94346.00;10444425;28;20275;-75
2021/07/01 06:12:08;;;;;;;23.13;9.52;;;;;;;32.44;81.57;94364.84;10444368;28;20452;-76
2021/07/01 06:17:11;;;;;;;20.13;9.10;;;;;;;33.13;77.27;94356.78;10446334;28;20037;-75
2021/07/01 06:22:12;;;;;;;27.55;8.70;;;;;;;33.60;72.04;94366.19;10445678;28;20053;-76
2021/07/01 06:27:13;;;;;;;21.90;8.40;;;;;;;34.18;66.64;94358.06;10446702;28;20484;-75
2021/07/01 06:32:13;;;;;;;17.80;10.77;;;;;;;33.85;70.64;94372.00;10446611;28;20385;-76
2021/07/01 06:37:16;;;;;;;22.80;9.87;;;;;;;34.85;64.37;94370.75;10445991;28;20056;-75
2021/07/01 06:42:21;;;;;;;17.63;10.02;;;;;;;35.01;60.78;94357.97;10445737;28;20032;-75
2021/07/01 06:47:22;;;;;;;19.85;8.52;;;;;;;35.44;59.78;94358.78;10445267;28;20824;-76
2021/07/01 06:52:22;;;;;;;17.02;9.07;;;;;;;36.00;53.75;94352.66;10446267;28;20029;-76
2021/07/01 06:57:24;;;;;;;24.08;9.75;;;;;;;35.62;49.95;94355.47;10445327;28;20043;-75
2021/07/01 07:02:25;;;;;;;17.90;7.88;;;;;;;35.61;49.69;94342.69;10444264;28;20120;-75
2021/07/01 07:07:25;;;;;;;22.85;7.97;;;;;;;36.52;49.13;94324.63;10444914;28;20033;-76
2021/07/01 07:12:26;;;;;;;19.05;8.50;;;;;;;37.03;46.35;94323.66;10444694;28;20032;-75
2021/07/01 07:17:35;;;;;;;21.73;8.77;;;;;;;37.69;42.92;94317.19;10444535;28;20862;-75
2021/07/01 07:22:41;;;;;;;16.17;7.07;;;;;;;38.76;40.53;94316.88;10444021;28;20863;-76
2021/07/01 07:28:01;;;;;;;15.50;7.68;;;;;;;38.79;39.04;94316.69;10443946;28;20083;-75
2021/07/01 07:33:04;;;;;;;17.25;7.40;;;;;;;38.84;39.41;94308.88;10444084;28;20128;-75
2021/07/01 07:38:08;;;;;;;18.00;8.05;;;;;;;38.57;39.23;94302.81;10443770;28;20064;-76
2021/07/01 07:43:15;;;;;;;16.15;7.80;;;;;;;39.33;38.97;94301.53;10443998;28;20063;-76
2021/07/01 07:48:16;;;;;;;20.77;7.43;;;;;;;39.94;36.40;94312.72;10443190;28;20040;-75
2021/07/01 07:53:21;;;;;;;15.33;6.00;;;;;;;40.45;33.97;94313.84;10443745;28;20025;-76
2021/07/01 07:58:22;;;;;;;25.38;6.00;;;;;;;41.16;32.65;94308.63;10442792;28;20033;-76
2021/07/01 08:03:23;;;;;;;23.13;6.70;;;;;;;41.13;34.18;94301.91;10442947;28;20024;-76
2021/07/01 08:08:25;;;;;;;19.77;6.00;;;;;;;41.85;32.45;94294.41;10443129;28;20797;-76
2021/07/01 08:13:27;;;;;;;17.58;5.82;;;;;;;41.53;32.73;94297.00;10442731;28;20024;-76
2021/07/01 08:18:30;;;;;;;22.75;4.95;;;;;;;42.70;29.59;94275.81;10442700;28;20108;-76
2021/07/01 08:23:33;;;;;;;28.45;7.15;;;;;;;42.87;30.42;94278.81;10458523;28;20033;-76
2021/07/01 08:28:34;;;;;;;12.00;5.32;;;;;;;41.84;31.45;94278.78;10442478;28;20097;-76
2021/07/01 08:33:37;;;;;;;18.65;4.75;;;;;;;42.56;28.70;94271.00;10442882;28;20041;-76
2021/07/01 08:38:38;;;;;;;16.33;4.45;;;;;;;43.00;28.94;94273.56;10442411;28;20037;-76
2021/07/01 08:43:48;;;;;;;22.85;4.65;;;;;;;43.34;27.66;94276.75;10442025;28;20033;-76
2021/07/01 08:49:02;;;;;;;29.27;5.13;;;;;;;41.49;26.86;94262.56;10441936;28;20029;-76
2021/07/01 08:54:26;;;;;;;16.47;4.47;;;;;;;39.68;29.56;94258.94;10441739;28;20784;-76
2021/07/01 08:59:54;;;;;;;16.60;4.78;;;;;;;40.13;28.73;94252.28;10441982;28;20021;-75
2021/07/01 09:04:56;;;;;;;17.38;4.57;;;;;;;42.14;24.51;94244.78;10430833;28;20063;-76
2021/07/01 09:10:01;;;;;;;16.08;4.30;;;;;;;42.85;24.72;94234.09;10441791;28;20021;-75
2021/07/01 09:15:08;;;;;;;24.05;4.93;;;;;;;43.81;24.12;94234.16;10441016;28;20045;-76
2021/07/01 09:20:11;;;;;;;11.15;3.80;;;;;;;44.53;22.89;94229.41;10444523;28;20855;-76
2021/07/01 09:25:12;;;;;;;15.77;3.47;;;;;;;44.91;22.17;94232.13;10442826;28;20913;-76
2021/07/01 09:30:15;;;;;;;19.85;3.95;;;;;;;45.47;20.44;94230.66;10448935;28;20025;-76
2021/07/01 09:35:15;;;;;;;20.27;4.32;;;;;;;45.75;20.71;94224.94;10448288;28;20045;-76
2021/07/01 09:40:18;;;;;;;29.35;4.13;;;;;;;46.04;19.98;94214.34;10448214;28;20488;-76
2021/07/01 09:45:22;;;;;;;22.08;3.20;;;;;;;46.21;19.86;94203.69;10448159;28;20032;-76
2021/07/01 09:50:26;;;;;;;16.25;3.20;;;;;;;46.57;19.58;94203.81;10447604;28;20021;-76
2021/07/01 09:55:29;;;;;;;21.20;4.00;;;;;;;45.98;21.50;94193.69;10446490;28;20025;-76
2021/07/01 10:00:31;;;;;;;17.93;3.27;;;;;;;45.80;20.40;94195.78;10447269;28;20024;-76
2021/07/01 10:05:32;;;;;;;25.95;3.53;;;;;;;45.37;21.71;94196.06;10447827;28;20488;-76
2021/07/01 10:10:50;;;;;;;14.73;3.60;;;;;;;46.76;20.34;94177.59;10447551;28;20031;-76
2021/07/01 10:15:51;;;;;;;24.33;4.03;;;;;;;47.36;18.68;94171.22;10447250;28;20021;-76
2021/07/01 10:20:54;;;;;;;15.93;3.85;;;;;;;46.31;21.80;94169.31;10446564;28;20035;-76
2021/07/01 10:25:57;;;;;;;18.13;3.72;;;;;;;45.83;21.10;94160.66;10446734;28;20036;-76
2021/07/01 10:31:07;;;;;;;23.77;4.32;;;;;;;44.44;21.90;94147.47;10446014;28;20519;-76
2021/07/01 10:36:18;;;;;;;18.92;3.97;;;;;;;44.03;21.04;94147.84;10446270;28;20049;-76
2021/07/01 10:41:29;;;;;;;21.77;4.43;;;;;;;41.72;22.97;94138.75;10446149;28;20111;-76
2021/07/01 10:46:43;;;;;;;21.48;4.53;;;;;;;43.91;22.24;94127.19;10445891;28;20025;-76
2021/07/01 10:51:54;;;;;;;25.50;4.60;;;;;;;42.18;24.93;94130.34;10444689;28;20032;-76
2021/07/01 10:57:04;;;;;;;21.40;4.38;;;;;;;42.22;22.63;94113.22;10445523;28;20021;-76
2021/07/01 11:02:05;;;;;;;28.60;4.40;;;;;;;41.84;24.16;94107.38;10448879;28;20020;-76
2021/07/01 11:07:06;;;;;;;15.43;5.05;;;;;;;40.28;25.07;94096.72;10444603;28;20017;-76
2021/07/01 11:12:07;;;;;;;18.58;4.30;;;;;;;38.22;27.34;94101.00;10444817;28;20029;-75
2021/07/01 11:17:09;;;;;;;20.88;4.85;;;;;;;36.61;29.76;94092.34;10444553;28;20036;-75
2021/07/01 11:22:10;;;;;;;19.33;5.10;;;;;;;35.99;29.54;94079.84;10459560;28;20032;-75
2021/07/01 11:27:12;;;;;;;19.70;4.72;;;;;;;35.33;31.08;94086.06;10459917;28;20053;-75
2021/07/01 11:32:22;;;;;;;20.17;4.72;;;;;;;35.22;32.16;94072.44;10444241;28;20455;-75
2021/07/01 11:37:36;;;;;;;27.35;5.13;;;;;;;34.68;32.89;94067.78;10444240;28;20072;-76
2021/07/01 11:42:37;;;;;;;25.23;4.50;;;;;;;34.46;33.80;94057.25;10443783;28;20025;-75
2021/07/01 11:47:41;;;;;;;25.35;5.00;;;;;;;34.27;33.07;94045.03;10442912;28;20031;-75
2021/07/01 11:52:42;;;;;;;32.45;5.88;;;;;;;34.04;33.69;94038.53;10443719;28;20021;-75
2021/07/01 11:57:42;;;;;;;23.48;4.78;;;;;;;33.92;35.25;94027.38;10402071;28;20027;-75
2021/07/01 12:02:44;;;;;;;26.33;5.22;;;;;;;34.03;34.42;94005.53;10402127;28;20029;-75
2021/07/01 12:07:46;;;;;;;33.63;6.68;;;;;;;33.62;35.46;93991.16;10402223;28;20381;-75
2021/07/01 12:12:47;;;;;;;26.35;5.68;;;;;;;33.71;36.57;93998.84;10401888;28;20128;-75
2021/07/01 12:17:51;;;;;;;26.40;4.65;;;;;;;33.41;35.77;94000.88;10401414;28;20033;-75
2021/07/01 12:22:53;;;;;;;30.73;4.25;;;;;;;32.92;35.82;93984.22;10417291;28;20022;-76
2021/07/01 12:28:09;;;;;;;30.10;5.13;;;;;;;32.79;36.97;93989.72;10401897;28;20033;-75
2021/07/01 12:33:38;;;;;;;34.30;4.33;;;;;;;32.96;37.84;93966.25;10400925;28;20520;-75
2021/07/01 12:38:41;;;;;;;27.50;5.10;;;;;;;32.98;38.08;93965.78;10416647;28;20033;-76
2021/07/01 12:43:46;;;;;;;19.55;5.07;;;;;;;32.62;38.34;93958.31;10400629;28;20504;-76
2021/07/01 12:48:47;;;;;;;25.08;5.03;;;;;;;32.63;38.34;93948.75;10401117;28;20037;-76
2021/07/01 12:53:47;;;;;;;31.87;5.00;;;;;;;32.35;38.77;93939.91;10400750;28;20460;-76
2021/07/01 12:58:47;;;;;;;24.20;4.83;;;;;;;32.28;38.73;93929.72;10401178;28;20025;-76
2021/07/01 13:03:48;;;;;;;30.20;5.00;;;;;;;32.36;38.37;93933.91;10408702;28;20033;-76
2021/07/01 13:08:48;;;;;;;19.53;5.63;;;;;;;32.58;41.40;93927.03;10408159;28;20103;-76
2021/07/01 13:13:58;;;;;;;28.30;5.00;;;;;;;32.61;41.45;93926.16;10423832;28;20491;-76
2021/07/01 13:19:20;;;;;;;23.58;6.40;;;;;;;32.68;44.36;93915.63;10407867;28;20060;-76
2021/07/01 13:24:25;;;;;;;29.10;7.75;;;;;;;32.86;40.33;93911.63;10406023;28;20112;-76
2021/07/01 13:29:37;;;;;;;21.20;5.57;;;;;;;32.65;43.15;93924.06;10406249;28;20029;-76
2021/07/01 13:34:38;;;;;;;33.22;6.43;;;;;;;32.59;40.44;93925.81;10406289;28;20045;-76
2021/07/01 13:39:41;;;;;;;24.38;5.57;;;;;;;32.27;38.95;93917.03;10404663;28;20061;-76
2021/07/01 13:45:08;;;;;;;30.65;6.22;;;;;;;32.08;40.69;93917.84;10406051;28;20511;-76
2021/07/01 13:50:38;;;;;;;38.10;8.63;;;;;;;31.91;39.69;93926.16;10405652;28;20057;-75
2021/07/01 13:55:44;;;;;;;26.75;5.30;;;;;;;31.30;42.72;93967.09;10404847;28;20413;-75
2021/07/01 14:00:48;;;;;;;26.33;5.90;;;;;;;31.02;44.63;93980.28;10403733;28;20041;-75
2021/07/01 14:05:50;;;;;;;38.35;13.90;;;;;;;30.80;48.19;93996.50;10404398;28;20052;-75
2021/07/01 14:11:03;;;;;;;18.55;6.32;;;;;;;30.43;52.25;94022.41;10418860;28;20025;-75
2021/07/01 14:16:05;;;;;;;44.38;6.90;;;;;;;27.95;80.30;94056.72;10433548;28;20062;-75
2021/07/01 14:21:06;;;;;;;28.52;6.22;;;;;;;27.12;94.45;94046.72;10445566;28;20094;-75
2021/07/01 14:26:13;;;;;;;30.88;5.72;;;;;;;25.98;100.00;94050.91;10445136;28;20029;-75
2021/07/01 14:31:16;;;;;;;26.40;6.10;;;;;;;26.05;100.00;94050.97;10444566;28;20060;-75
2021/07/01 14:36:28;;;;;;;25.17;4.53;;;;;;;26.22;100.00;94056.91;10443902;28;20045;-75
2021/07/01 14:41:40;;;;;;;27.35;6.13;;;;;;;26.25;97.08;94043.13;10442807;28;20032;-75
2021/07/01 14:46:42;;;;;;;19.42;5.00;;;;;;;26.33;94.61;94026.63;10443833;28;20033;-75
2021/07/01 14:51:52;;;;;;;14.45;4.60;;;;;;;26.51;89.81;94012.84;10457295;28;20032;-75
2021/07/01 14:57:03;;;;;;;16.20;5.38;;;;;;;26.44;91.13;94033.72;10448899;28;20021;-75
2021/07/01 15:02:03;;;;;;;22.45;5.40;;;;;;;26.71;100.00;94051.84;10400673;28;20115;-75
2021/07/01 15:07:06;;;;;;;24.47;5.50;;;;;;;26.77;100.00;93998.69;10399659;28;20026;-75
2021/07/01 15:12:18;;;;;;;21.60;4.18;;;;;;;27.12;100.00;93958.44;10400922;28;20555;-75
2021/07/01 15:17:20;;;;;;;17.13;4.60;;;;;;;27.27;100.00;93966.69;10398054;28;20025;-75
2021/07/01 15:22:21;;;;;;;31.52;6.38;;;;;;;27.29;100.00;93975.34;10394563;28;20032;-75
2021/07/01 15:27:24;;;;;;;23.55;5.70;;;;;;;27.27;100.00;93980.50;10397578;28;20036;-75
2021/07/01 15:32:25;;;;;;;22.33;4.60;;;;;;;27.36;100.00;93986.38;10399023;28;20033;-75
2021/07/01 15:37:27;;;;;;;27.88;5.10;;;;;;;27.45;100.00;93997.00;10399184;28;20041;-75
2021/07/01 15:42:27;;;;;;;21.10;5.95;;;;;;;27.51;97.14;94008.44;10398859;28;20026;-75
2021/07/01 15:47:27;;;;;;;18.20;4.95;;;;;;;27.51;89.71;94013.94;10398840;28;20025;-75
2021/07/01 15:52:28;;;;;;;20.47;4.27;;;;;;;27.31;79.37;94030.94;10398649;28;20052;-75
2021/07/01 15:57:30;;;;;;;17.30;4.13;;;;;;;27.48;77.61;94043.13;10398190;28;20029;-75
2021/07/01 16:02:31;;;;;;;21.63;5.50;;;;;;;27.71;75.46;94055.66;10398093;28;20025;-75
2021/07/01 16:07:32;;;;;;;22.27;4.70;;;;;;;27.88;71.78;94068.63;10398366;28;20029;-75
2021/07/01 16:12:33;;;;;;;25.20;5.15;;;;;;;27.92;80.75;94065.81;10396303;28;20045;-75
2021/07/01 16:17:34;;;;;;;24.08;5.60;;;;;;;27.91;79.40;94065.03;10413425;28;20108;-75
2021/07/01 16:22:36;;;;;;;27.25;6.28;;;;;;;27.79;82.11;94088.34;10397818;28;20030;-75
2021/07/01 16:27:36;;;;;;;19.60;5.40;;;;;;;27.56;83.80;94110.91;10397015;28;20025;-75
2021/07/01 16:32:36;;;;;;;23.58;5.68;;;;;;;27.27;88.48;94121.97;10397267;28;20033;-75
2021/07/01 16:37:37;;;;;;;17.70;5.93;;;;;;;26.88;96.76;94125.53;10406714;28;20059;-75
2021/07/01 16:42:37;;;;;;;23.47;5.80;;;;;;;26.55;100.00;94132.16;10405938;28;20040;-75
2021/07/01 16:47:43;;;;;;;18.05;5.40;;;;;;;26.08;100.00;94143.00;10405586;28;20299;-75
2021/07/01 16:52:45;;;;;;;22.20;6.60;;;;;;;25.88;100.00;94137.78;10405294;28;20025;-75
2021/07/01 16:57:49;;;;;;;15.10;6.80;;;;;;;25.56;100.00;94126.63;10405537;28;20029;-76
2021/07/01 17:02:50;;;;;;;15.80;7.97;;;;;;;25.34;100.00;94131.19;10407177;28;20041;-75
2021/07/01 17:07:50;;;;;;;17.67;6.57;;;;;;;25.17;100.00;94147.16;10405875;28;20397;-75
2021/07/01 17:12:53;;;;;;;15.47;6.50;;;;;;;24.91;100.00;94167.38;10421566;28;20025;-74
2021/07/01 17:17:58;;;;;;;23.55;7.85;;;;;;;24.68;100.00;94160.09;10445603;28;20779;-75
2021/07/01 17:22:59;;;;;;;18.90;6.97;;;;;;;24.46;100.00;94193.97;10429138;28;20060;-74
2021/07/01 17:28:00;;;;;;;22.17;6.78;;;;;;;24.17;100.00;94179.94;10432083;28;20034;-74
2021/07/01 17:33:01;;;;;;;17.40;6.80;;;;;;;24.11;100.00;94184.16;10432876;28;20103;-74
2021/07/01 17:38:01;;;;;;;16.15;5.50;;;;;;;23.81;100.00;94206.88;10423740;28;20030;-74
2021/07/01 17:43:04;;;;;;;18.27;6.47;;;;;;;23.61;100.00;94197.97;10425747;28;20496;-74
2021/07/01 17:48:05;;;;;;;16.23;7.15;;;;;;;23.41;100.00;94232.94;10424735;28;20284;-76
2021/07/01 17:53:05;;;;;;;16.25;6.57;;;;;;;23.46;100.00;94207.97;10422880;28;20025;-75
2021/07/01 17:58:07;;;;;;;17.50;6.43;;;;;;;23.27;100.00;94241.72;10418075;28;20075;-75
2021/07/01 18:03:08;;;;;;;13.50;6.13;;;;;;;23.18;100.00;94225.53;10422953;28;20037;-75
2021/07/01 18:08:08;;;;;;;12.57;5.75;;;;;;;23.20;100.00;94236.91;10427484;28;20071;-75
2021/07/01 18:13:08;;;;;;;17.73;5.40;;;;;;;23.07;100.00;94236.28;10423517;28;20020;-76
2021/07/01 18:18:09;;;;;;;12.00;5.23;;;;;;;22.95;100.00;94231.75;10426218;28;20060;-76
2021/07/01 18:23:09;;;;;;;23.97;7.37;;;;;;;22.75;100.00;94235.72;10426483;28;20033;-75
2021/07/01 18:28:10;;;;;;;14.20;7.30;;;;;;;22.53;100.00;94222.38;10439723;28;20032;-75
2021/07/01 18:33:10;;;;;;;18.80;7.28;;;;;;;22.18;100.00;94198.59;10430434;28;20044;-75
2021/07/01 18:38:11;;;;;;;30.80;15.03;;;;;;;22.17;100.00;94196.22;10438469;28;20040;-75
2021/07/01 18:43:11;;;;;;;14.73;7.07;;;;;;;21.87;100.00;94193.28;10433366;28;20283;-75
2021/07/01 18:48:12;;;;;;;12.83;7.33;;;;;;;21.57;100.00;94221.16;10444554;28;20149;-75
2021/07/01 18:53:12;;;;;;;27.73;10.10;;;;;;;21.39;100.00;94248.84;10437413;28;20293;-75
2021/07/01 18:58:13;;;;;;;16.05;9.15;;;;;;;21.22;100.00;94247.25;10445164;28;20028;-77
2021/07/01 19:03:14;;;;;;;16.50;9.25;;;;;;;21.32;100.00;94251.38;10445437;28;20025;-75
2021/07/01 19:08:14;;;;;;;26.70;9.27;;;;;;;21.59;100.00;94254.41;10443359;28;20036;-75
2021/07/01 19:13:15;;;;;;;20.75;8.82;;;;;;;21.83;100.00;94264.34;10443022;28;20374;-75
2021/07/01 19:18:15;;;;;;;16.92;8.90;;;;;;;21.88;100.00;94274.19;10422285;28;20483;-75
2021/07/01 19:23:16;;;;;;;12.32;7.15;;;;;;;21.90;100.00;94277.38;10422071;28;20820;-75
2021/07/01 19:28:16;;;;;;;21.00;8.33;;;;;;;21.94;100.00;94272.78;10426661;28;20021;-75
2021/07/01 19:33:17;;;;;;;16.63;7.43;;;;;;;21.70;100.00;94271.06;10418982;28;20802;-76
2021/07/01 19:38:18;;;;;;;18.23;8.60;;;;;;;21.61;100.00;94277.50;10425604;28;20564;-76
2021/07/01 19:43:20;;;;;;;17.92;8.63;;;;;;;21.59;100.00;94279.81;10420022;28;20284;-75
2021/07/01 19:48:30;;;;;;;14.85;6.93;;;;;;;21.34;100.00;94269.03;10436490;28;20033;-76
2021/07/01 19:53:31;;;;;;;12.90;7.75;;;;;;;21.45;100.00;94272.03;10429392;28;20047;-76
2021/07/01 19:58:34;;;;;;;20.10;7.80;;;;;;;21.56;100.00;94272.31;10402612;28;20029;-75
2021/07/01 20:03:36;;;;;;;23.35;8.27;;;;;;;21.40;100.00;94275.03;10415945;28;20137;-75
2021/07/01 20:08:36;;;;;;;24.63;9.88;;;;;;;21.44;100.00;94286.06;10400884;28;20112;-75
2021/07/01 20:13:38;;;;;;;22.80;10.70;;;;;;;21.41;100.00;94281.31;10401155;28;20091;-76
2021/07/01 20:18:38;;;;;;;16.08;9.15;;;;;;;21.12;100.00;94281.38;10424533;28;20374;-76
2021/07/01 20:23:38;;;;;;;22.10;8.73;;;;;;;20.86;100.00;94279.16;10441373;28;20389;-75
2021/07/01 20:28:39;;;;;;;17.87;8.67;;;;;;;20.81;100.00;94290.31;10409443;28;20060;-76
2021/07/01 20:33:39;;;;;;;25.60;7.30;;;;;;;20.75;100.00;94288.97;10404613;28;20302;-76
2021/07/01 20:38:40;;;;;;;17.10;7.65;;;;;;;20.59;100.00;94286.19;10457570;28;20079;-76
2021/07/01 20:43:40;;;;;;;24.47;8.07;;;;;;;20.38;100.00;94291.84;10429932;28;20025;-76
2021/07/01 20:48:40;;;;;;;18.90;7.83;;;;;;;20.19;100.00;94292.47;10405427;28;20040;-76
2021/07/01 20:53:41;;;;;;;15.75;7.53;;;;;;;20.23;100.00;94305.06;10424017;28;20021;-76
2021/07/01 20:58:41;;;;;;;20.70;7.20;;;;;;;20.34;100.00;94290.94;10401389;28;20036;-76
2021/07/01 21:03:43;;;;;;;15.73;7.93;;;;;;;20.46;100.00;94285.44;10425634;28;20032;-76
2021/07/01 21:08:49;;;;;;;17.27;8.05;;;;;;;20.13;100.00;94279.03;10441120;28;20041;-76
2021/07/01 21:13:54;;;;;;;23.25;9.10;;;;;;;20.07;100.00;94269.53;10441334;28;20611;-75
2021/07/01 21:18:56;;;;;;;26.40;9.27;;;;;;;19.84;100.00;94269.22;10440482;28;20116;-75
2021/07/01 21:23:57;;;;;;;22.10;9.38;;;;;;;19.85;100.00;94276.28;10447866;28;20029;-75
2021/07/01 21:28:57;;;;;;;21.20;9.00;;;;;;;19.60;100.00;94259.91;10446744;28;20025;-76
2021/07/01 21:33:58;;;;;;;16.88;7.63;;;;;;;19.58;100.00;94247.78;10445004;28;20299;-75
2021/07/01 21:38:59;;;;;;;15.25;8.00;;;;;;;19.54;100.00;94244.94;10451393;28;20362;-79
2021/07/01 21:44:00;;;;;;;14.93;8.10;;;;;;;19.51;100.00;94253.00;10451675;28;20021;-80
2021/07/01 21:49:02;;;;;;;17.77;8.15;;;;;;;19.41;100.00;94241.44;10452906;28;20030;-80
2021/07/01 21:54:03;;;;;;;13.25;7.28;;;;;;;19.58;100.00;94251.28;10451842;28;20021;-79
2021/07/01 21:59:05;;;;;;;19.52;7.60;;;;;;;19.72;100.00;94256.38;10451493;28;20387;-80
2021/07/01 22:04:06;;;;;;;17.98;8.02;;;;;;;19.59;100.00;94263.78;10424991;28;20373;-80
2021/07/01 22:09:07;;;;;;;20.48;7.80;;;;;;;19.43;100.00;94255.50;10429831;28;20029;-80
2021/07/01 22:14:08;;;;;;;18.65;7.30;;;;;;;19.30;100.00;94246.53;10410337;28;20044;-80
2021/07/01 22:20:09;;;;;;;26.40;8.25;;;;;;;19.26;100.00;94244.84;10428421;28;20029;-80
2021/07/01 22:24:39;;;;;;;14.93;7.60;;;;;;;19.43;100.00;94247.31;10450752;28;20836;-80
2021/07/01 22:29:40;;;;;;;11.60;7.40;;;;;;;19.54;100.00;94244.94;10449924;28;20091;-80
2021/07/01 22:34:41;;;;;;;24.42;6.75;;;;;;;19.56;100.00;94250.03;10450729;28;20512;-80
2021/07/01 22:39:41;;;;;;;13.13;7.53;;;;;;;19.57;100.00;94244.25;10450388;28;20052;-80
2021/07/01 22:44:42;;;;;;;14.30;6.38;;;;;;;19.48;100.00;94259.94;10449898;28;20287;-80
2021/07/01 22:49:42;;;;;;;14.55;6.45;;;;;;;19.50;100.00;94275.94;10451725;28;20035;-81
2021/07/01 22:54:43;;;;;;;21.80;8.40;;;;;;;19.32;100.00;94278.88;10449935;28;20020;-80
2021/07/01 22:59:43;;;;;;;13.07;7.17;;;;;;;19.14;100.00;94283.75;10451033;28;20043;-80
2021/07/01 23:04:43;;;;;;;22.93;8.33;;;;;;;19.03;100.00;94275.22;10449873;28;20499;-81